الصفحة الرئيسية
METAR-TAF:

METAR-TAF

مطار :

بيكوس, تكساس, الولايات المتحدة

دائرة عرض: 31-22-56N, خط طول: 103-30-38W, ارتفاع: 796 متر

مراقبة الطقس الحالي

تاريخ ووقت الإصدار 31 دقيقة قبل الساعة 21:35UTC
ريح 7 عقدة من الشرق/الشمال الشرقي
درجة الحرارة 17°درجة مئوية
الرطوبة 25%
ضغط 1022 hPa
الرؤية: 16.1 كم
ملبد بالغيوم على ارتفاع 9500 قدم

METAR: KPEQ 182135Z AUTO 07007KT 10SM OVC095 17/M03 A3018 RMK AO2 T01711033

زمن: 17:06 (22:06 UTC)

توقعات

تاريخ ووقت الإصدار 4ساعات و 46 دقيقة قبل الساعة 17:20UTC
التوقعات صالحة من18 الساعة 18 UTC إلى 19 الساعة 18 UTC
ريح 7 عقدة من الشرق
الرؤية: 10 كم
غيوم متفرقة على ارتفاع 20000 قدم

TAF: KPEQ 181720Z 1818/1918 09007KT P6SM SCT200

أرصاد الطقس والتوقعات من أكثر من 4000 مطار (تقارير الطقس للمطار METAR والتنبؤ بالطقس بالمطارTAF).

المحطات المتاحة هي النقط الصفراء والحمراء على الخريطة.

حرك المؤشر فوق النقطة لمعرفة اسم المحطة.

ثم انقر لمعرفة أرصاد وتوقعات الطقس.

لتغيير الخارطة: اضغط على الأزرار الخضراء مع رمز الصليب الأسود للتكبير. على الزر الأخضر مع شرطة للتصغير، أو على الأسهم الخضراء للخرائط المجاورة.


METAR-TAF: